Time;durP1;ratioP1;P1;durP2;ratioP2;P2;SDS_P1;SDS_P2;PMS_P1;PMS_P2;Temp;Humidity;BMP_temperature;BMP_pressure;BME280_temperature;BME280_humidity;BME280_pressure;Samples;Min_cycle;Max_cycle;Signal;HPM_P1;HPM_P2
2023/01/14 00:01:12;;;;;;;15.20;4.90;;;10.50;99.90;;;;;;5053463;28;20415;-68
2023/01/14 00:03:38;;;;;;;10.53;4.33;;;10.50;99.90;;;;;;5052348;28;20441;-68
2023/01/14 00:06:04;;;;;;;11.00;4.73;;;10.50;99.90;;;;;;5054713;28;20416;-68
2023/01/14 00:08:30;;;;;;;8.10;5.17;;;10.50;99.90;;;;;;5053492;28;20510;-68
2023/01/14 00:11:01;;;;;;;11.23;4.83;;;10.50;99.90;;;;;;5054606;28;20412;-68
2023/01/14 00:13:27;;;;;;;12.13;5.60;;;10.40;99.90;;;;;;5053677;28;20414;-68
2023/01/14 00:15:55;;;;;;;6.73;3.50;;;10.40;99.90;;;;;;5054398;28;20928;-68
2023/01/14 00:18:22;;;;;;;10.10;4.00;;;10.50;99.90;;;;;;5053687;28;20182;-68
2023/01/14 00:20:57;;;;;;;15.17;4.80;;;10.50;99.90;;;;;;5054395;28;20407;-67
2023/01/14 00:23:23;;;;;;;12.40;4.93;;;10.40;99.90;;;;;;5053488;28;20511;-68
2023/01/14 00:25:49;;;;;;;5.20;3.77;;;10.40;99.90;;;;;;5054403;28;20456;-68
2023/01/14 00:28:15;;;;;;;14.40;4.77;;;10.40;99.90;;;;;;5052992;28;20810;-68
2023/01/14 00:30:42;;;;;;;13.13;4.73;;;10.40;99.90;;;;;;5052126;28;20182;-68
2023/01/14 00:33:08;;;;;;;12.23;4.53;;;10.40;99.90;;;;;;5054193;28;20269;-68
2023/01/14 00:35:34;;;;;;;13.73;5.00;;;10.40;99.90;;;;;;5052143;28;20461;-68
2023/01/14 00:38:00;;;;;;;11.80;5.03;;;10.50;99.90;;;;;;5052647;28;20412;-68
2023/01/14 00:40:26;;;;;;;11.77;4.60;;;10.40;99.90;;;;;;5053038;28;20811;-68
2023/01/14 00:42:51;;;;;;;12.40;5.30;;;10.30;99.90;;;;;;5052792;28;20956;-68
2023/01/14 00:45:17;;;;;;;15.70;5.47;;;10.30;99.90;;;;;;5053904;28;20196;-67
2023/01/14 00:47:43;;;;;;;11.23;5.03;;;10.30;99.90;;;;;;5053413;28;20192;-66
2023/01/14 00:50:10;;;;;;;14.87;4.50;;;10.40;99.90;;;;;;5053963;28;20174;-66
2023/01/14 00:52:36;;;;;;;17.13;5.63;;;10.40;99.90;;;;;;5053073;28;20661;-66
2023/01/14 00:55:01;;;;;;;10.80;4.90;;;10.50;99.90;;;;;;5053805;28;20453;-66
2023/01/14 00:57:27;;;;;;;10.50;5.20;;;10.40;99.90;;;;;;5051840;28;20546;-67
2023/01/14 00:59:53;;;;;;;12.60;5.50;;;10.50;99.90;;;;;;5053464;28;20185;-67
2023/01/14 01:02:18;;;;;;;11.33;4.90;;;10.50;99.90;;;;;;5052997;28;20200;-67
2023/01/14 01:04:44;;;;;;;11.97;5.30;;;10.50;99.90;;;;;;5052083;28;20224;-67
2023/01/14 01:07:10;;;;;;;11.87;5.00;;;10.50;99.90;;;;;;5051467;28;20653;-67
2023/01/14 01:09:35;;;;;;;9.83;4.73;;;10.50;99.90;;;;;;5051792;28;20187;-67
2023/01/14 01:12:01;;;;;;;18.73;4.93;;;10.40;99.90;;;;;;5053247;28;20174;-68
2023/01/14 01:14:27;;;;;;;14.50;4.40;;;10.40;99.90;;;;;;5052575;28;20613;-68
2023/01/14 01:16:53;;;;;;;14.53;4.57;;;10.50;99.90;;;;;;5052042;28;20492;-68
2023/01/14 01:19:18;;;;;;;15.60;4.67;;;10.50;99.90;;;;;;5053247;28;20602;-68
2023/01/14 01:21:44;;;;;;;15.23;4.47;;;10.40;99.90;;;;;;5052664;28;20187;-68
2023/01/14 01:24:10;;;;;;;23.90;5.90;;;10.30;99.90;;;;;;5052971;28;20194;-67
2023/01/14 01:26:35;;;;;;;11.60;5.37;;;10.40;99.90;;;;;;5052376;28;20214;-68
2023/01/14 01:29:01;;;;;;;12.37;5.20;;;10.30;99.90;;;;;;5053124;28;20639;-68
2023/01/14 01:31:28;;;;;;;9.03;4.03;;;10.30;99.90;;;;;;5052534;28;20179;-68
2023/01/14 01:33:54;;;;;;;17.47;4.87;;;10.40;99.90;;;;;;5053169;28;20174;-68
2023/01/14 01:36:22;;;;;;;10.57;4.30;;;10.40;99.90;;;;;;5052702;28;20421;-68
2023/01/14 01:38:48;;;;;;;10.03;4.73;;;10.50;99.90;;;;;;5051301;28;20946;-68
2023/01/14 01:41:16;;;;;;;12.50;4.10;;;10.50;99.90;;;;;;5052673;28;20456;-68
2023/01/14 01:43:56;;;;;;;13.40;5.30;;;10.50;99.90;;;;;;5051853;28;21184;-68
2023/01/14 01:46:22;;;;;;;14.07;5.03;;;10.50;99.90;;;;;;5052260;28;20429;-68
2023/01/14 01:48:48;;;;;;;15.67;5.00;;;10.50;99.90;;;;;;5052695;28;20821;-68
2023/01/14 01:51:21;;;;;;;11.23;4.73;;;10.50;99.90;;;;;;5051640;28;20668;-67
2023/01/14 01:53:51;;;;;;;11.23;5.57;;;10.50;99.90;;;;;;5050504;28;20430;-67
2023/01/14 01:56:20;;;;;;;16.47;5.20;;;10.40;99.90;;;;;;5052053;28;20453;-68
2023/01/14 01:58:47;;;;;;;11.40;5.53;;;10.50;99.90;;;;;;5051778;28;20430;-68
2023/01/14 02:01:14;;;;;;;10.53;4.63;;;10.50;99.90;;;;;;5050489;28;20440;-68
2023/01/14 02:03:42;;;;;;;10.40;4.20;;;10.50;99.90;;;;;;5048336;28;20989;-67
2023/01/14 02:06:09;;;;;;;9.13;4.60;;;10.50;99.90;;;;;;5048970;28;20496;-68
2023/01/14 02:08:37;;;;;;;10.83;5.33;;;10.50;99.90;;;;;;5048802;28;20503;-68
2023/01/14 02:11:08;;;;;;;11.60;4.70;;;10.40;99.90;;;;;;5050679;28;20434;-68
2023/01/14 02:14:06;;;;;;;8.50;4.47;;;10.50;99.90;;;;;;5049544;28;20904;-67
2023/01/14 02:16:50;;;;;;;11.60;5.20;;;10.50;99.90;;;;;;5048889;28;20540;-68
2023/01/14 02:19:28;;;;;;;10.93;4.53;;;10.30;99.90;;;;;;5048245;28;20774;-68
2023/01/14 02:22:24;;;;;;;11.00;4.23;;;10.30;99.90;;;;;;5051558;28;20429;-67
2023/01/14 02:24:58;;;;;;;13.90;5.80;;;10.30;99.90;;;;;;5051363;28;20572;-68
2023/01/14 02:28:01;;;;;;;12.40;4.80;;;10.30;99.90;;;;;;5049163;28;20424;-70
2023/01/14 02:30:47;;;;;;;17.47;5.83;;;10.30;99.90;;;;;;5039883;28;20419;-68
2023/01/14 02:33:23;;;;;;;11.67;4.33;;;10.30;99.90;;;;;;5038192;28;20428;-68
2023/01/14 02:36:14;;;;;;;9.87;4.50;;;10.30;99.90;;;;;;5048362;28;20462;-68
2023/01/14 02:39:11;;;;;;;12.23;4.60;;;10.30;99.90;;;;;;5050540;28;20514;-68
2023/01/14 02:44:51;;;;;;;8.67;4.90;;;10.30;99.90;;;;;;5047717;28;20441;-67
2023/01/14 02:47:22;;;;;;;12.73;4.90;;;10.20;99.90;;;;;;5034631;28;20449;-67
2023/01/14 02:49:52;;;;;;;12.80;4.70;;;10.20;99.90;;;;;;5051052;28;20424;-67
2023/01/14 02:52:18;;;;;;;14.80;4.83;;;10.10;99.90;;;;;;5051975;28;20417;-67
2023/01/14 02:55:00;;;;;;;13.30;4.80;;;10.20;99.90;;;;;;5051035;28;20598;-67
2023/01/14 02:57:53;;;;;;;13.73;5.30;;;10.20;99.90;;;;;;5051650;28;20407;-68
2023/01/14 03:00:45;;;;;;;14.87;5.17;;;10.20;99.90;;;;;;5050563;28;20483;-67
2023/01/14 03:03:23;;;;;;;14.20;4.80;;;10.20;99.90;;;;;;5050761;28;20440;-67
2023/01/14 03:06:24;;;;;;;10.13;4.80;;;10.20;99.90;;;;;;5051359;28;20400;-68
2023/01/14 03:09:04;;;;;;;11.37;4.73;;;10.20;99.90;;;;;;5049993;28;20437;-68
2023/01/14 03:11:46;;;;;;;10.70;4.53;;;10.30;99.90;;;;;;5050854;28;20761;-68
2023/01/14 03:14:20;;;;;;;17.33;5.50;;;10.30;99.90;;;;;;5051525;28;20413;-68
2023/01/14 03:16:53;;;;;;;12.73;4.50;;;10.30;99.90;;;;;;5051219;28;20411;-68
2023/01/14 03:19:28;;;;;;;13.37;4.93;;;10.30;99.90;;;;;;5052367;28;20401;-68
2023/01/14 03:21:56;;;;;;;10.07;4.10;;;10.30;99.90;;;;;;5055548;28;20491;-68
2023/01/14 03:24:29;;;;;;;11.10;5.70;;;10.20;99.90;;;;;;5055548;28;20410;-67
2023/01/14 03:27:01;;;;;;;10.93;4.53;;;10.20;99.90;;;;;;5054460;28;20403;-68
2023/01/14 03:29:32;;;;;;;16.07;5.10;;;10.20;99.90;;;;;;5055024;28;20930;-69
2023/01/14 03:32:29;;;;;;;15.93;4.23;;;10.20;99.90;;;;;;5055480;28;20401;-68
2023/01/14 03:35:18;;;;;;;11.17;5.07;;;10.20;99.90;;;;;;5054875;28;21086;-68
2023/01/14 03:37:56;;;;;;;8.57;4.40;;;10.20;99.90;;;;;;5054319;28;20741;-68
2023/01/14 03:40:24;;;;;;;14.60;5.00;;;10.30;99.90;;;;;;5053760;28;20964;-68
2023/01/14 03:42:55;;;;;;;15.43;6.10;;;10.20;99.90;;;;;;5054324;28;20423;-68
2023/01/14 03:45:23;;;;;;;16.97;4.90;;;10.20;99.90;;;;;;5054094;28;20905;-67
2023/01/14 03:47:48;;;;;;;13.10;5.03;;;10.20;99.90;;;;;;5054370;28;20415;-68
2023/01/14 03:50:19;;;;;;;6.40;4.03;;;10.20;99.90;;;;;;5055125;28;20463;-68
2023/01/14 03:52:58;;;;;;;11.40;4.90;;;10.30;99.90;;;;;;5053960;28;20414;-68
2023/01/14 03:55:35;;;;;;;12.83;4.70;;;10.30;99.90;;;;;;5054774;28;20468;-67
2023/01/14 03:58:19;;;;;;;7.80;3.83;;;10.30;99.90;;;;;;5053509;28;20958;-68
2023/01/14 04:01:27;;;;;;;7.80;4.03;;;10.20;99.90;;;;;;5053162;28;20469;-68
2023/01/14 04:03:54;;;;;;;15.97;4.33;;;10.20;99.90;;;;;;5052636;28;20473;-67
2023/01/14 04:06:20;;;;;;;12.80;5.00;;;10.10;99.90;;;;;;5054720;28;20909;-67
2023/01/14 04:08:46;;;;;;;10.20;5.17;;;10.20;99.90;;;;;;5053722;28;20405;-68
2023/01/14 04:11:11;;;;;;;15.77;5.27;;;10.20;99.90;;;;;;5053205;28;20433;-67
2023/01/14 04:16:21;;;;;;;18.37;5.20;;;10.10;99.90;;;;;;5054587;28;20196;-68
2023/01/14 04:18:47;;;;;;;9.57;4.77;;;10.10;99.90;;;;;;5053660;28;20412;-68
2023/01/14 04:21:12;;;;;;;11.00;4.23;;;10.10;99.90;;;;;;5054428;28;20175;-67
2023/01/14 04:23:38;;;;;;;6.57;3.63;;;10.10;99.90;;;;;;5053634;28;20178;-68
2023/01/14 04:26:04;;;;;;;8.67;4.50;;;10.20;99.90;;;;;;5054024;28;20653;-68
2023/01/14 04:28:29;;;;;;;11.73;4.60;;;10.20;99.90;;;;;;5052722;28;20233;-68
2023/01/14 04:30:55;;;;;;;11.93;3.90;;;10.10;99.90;;;;;;5053595;28;20534;-68
2023/01/14 04:33:21;;;;;;;10.40;4.20;;;10.10;99.90;;;;;;5054178;28;20175;-68
2023/01/14 04:35:48;;;;;;;12.80;5.73;;;10.20;99.90;;;;;;5053429;28;20285;-67
2023/01/14 04:38:15;;;;;;;12.17;4.30;;;10.20;99.90;;;;;;5053997;28;20542;-67
2023/01/14 04:40:41;;;;;;;12.10;5.20;;;10.20;99.90;;;;;;5053148;28;20474;-68
2023/01/14 04:43:06;;;;;;;12.10;4.47;;;10.00;99.90;;;;;;5054062;28;20405;-68
2023/01/14 04:45:32;;;;;;;11.17;4.53;;;10.10;99.90;;;;;;5053266;28;20190;-69
2023/01/14 04:47:58;;;;;;;15.77;4.30;;;10.10;99.90;;;;;;5053602;28;20222;-67
2023/01/14 04:50:34;;;;;;;10.70;4.77;;;10.10;99.90;;;;;;5053629;28;20185;-68
2023/01/14 04:53:23;;;;;;;15.10;4.27;;;10.10;99.90;;;;;;5036047;28;20174;-67
2023/01/14 04:55:55;;;;;;;9.10;4.53;;;10.10;99.90;;;;;;5052733;28;20445;-68
2023/01/14 04:58:21;;;;;;;10.63;4.53;;;10.10;99.90;;;;;;5051364;28;20990;-68
2023/01/14 05:00:47;;;;;;;10.60;4.97;;;10.10;99.90;;;;;;5052893;28;20406;-67
2023/01/14 05:03:15;;;;;;;8.07;4.37;;;10.10;99.90;;;;;;5053544;28;20908;-68
2023/01/14 05:05:40;;;;;;;12.30;4.53;;;10.20;99.90;;;;;;5052768;28;20433;-68
2023/01/14 05:08:07;;;;;;;11.67;4.00;;;10.10;99.90;;;;;;5053504;28;20771;-68
2023/01/14 05:10:34;;;;;;;8.53;3.70;;;10.20;99.90;;;;;;5052839;28;20184;-69
2023/01/14 05:13:02;;;;;;;4.57;3.50;;;10.10;99.90;;;;;;5052127;28;20447;-67
2023/01/14 05:15:34;;;;;;;7.60;3.87;;;10.10;99.90;;;;;;5052182;28;20464;-67
2023/01/14 05:18:01;;;;;;;11.47;3.40;;;10.00;99.90;;;;;;5053224;28;20433;-68
2023/01/14 05:20:27;;;;;;;17.23;4.50;;;10.00;99.90;;;;;;5053315;28;20424;-67
2023/01/14 05:22:59;;;;;;;18.03;5.17;;;9.90;99.90;;;;;;5051305;28;20420;-68
2023/01/14 05:25:25;;;;;;;12.53;4.37;;;10.00;99.90;;;;;;5051976;28;20762;-67
2023/01/14 05:27:51;;;;;;;9.90;4.00;;;9.90;99.90;;;;;;5050894;28;20432;-67
2023/01/14 05:30:16;;;;;;;14.40;4.93;;;9.90;99.90;;;;;;5050275;28;20536;-68
2023/01/14 05:32:42;;;;;;;11.00;4.37;;;10.00;99.90;;;;;;5050452;28;20216;-67
2023/01/14 05:35:08;;;;;;;9.00;4.57;;;9.90;99.90;;;;;;5050008;28;20634;-67
2023/01/14 05:37:34;;;;;;;9.27;4.90;;;10.00;99.90;;;;;;5053051;28;20409;-68
2023/01/14 05:40:00;;;;;;;9.43;4.97;;;10.00;99.90;;;;;;5052751;28;20543;-67
2023/01/14 05:47:56;;;;;;;8.40;4.60;;;10.10;99.90;;;;;;5052080;28;21043;-67
2023/01/14 05:50:22;;;;;;;9.93;3.90;;;9.80;99.90;;;;;;5052784;28;20496;-67
2023/01/14 05:52:47;;;;;;;14.80;3.60;;;9.70;99.90;;;;;;5051983;28;20424;-67
2023/01/14 05:55:13;;;;;;;15.37;4.27;;;9.70;99.90;;;;;;5052591;28;20293;-67
2023/01/14 05:57:39;;;;;;;6.13;3.67;;;9.70;99.90;;;;;;5050136;28;20205;-68
2023/01/14 06:00:05;;;;;;;6.73;3.33;;;9.70;99.90;;;;;;5052480;28;20218;-67
2023/01/14 06:08:03;;;;;;;12.20;3.70;;;9.60;99.90;;;;;;5051528;28;20946;-67
2023/01/14 06:10:28;;;;;;;11.60;4.30;;;9.30;99.90;;;;;;5051598;28;20832;-67
2023/01/14 06:12:57;;;;;;;10.10;5.40;;;9.40;99.90;;;;;;5051597;28;20404;-67
2023/01/14 06:15:39;;;;;;;6.13;3.20;;;9.20;99.90;;;;;;5052016;28;20746;-67
2023/01/14 06:18:15;;;;;;;14.00;4.70;;;9.30;99.90;;;;;;5052415;28;20462;-67
2023/01/14 06:20:44;;;;;;;7.70;4.20;;;9.20;99.90;;;;;;5051594;28;20432;-67
2023/01/14 06:23:10;;;;;;;10.03;4.50;;;9.10;99.90;;;;;;5050274;28;20425;-67
2023/01/14 06:25:36;;;;;;;6.97;4.00;;;8.80;99.90;;;;;;5051144;28;20542;-67
2023/01/14 06:28:02;;;;;;;8.13;4.77;;;9.00;99.90;;;;;;5049614;28;20452;-67
2023/01/14 06:30:29;;;;;;;12.33;4.50;;;9.00;99.90;;;;;;5051700;28;20265;-67
2023/01/14 06:32:55;;;;;;;6.40;3.73;;;9.10;99.90;;;;;;5051427;28;20173;-67
2023/01/14 06:35:22;;;;;;;9.10;4.27;;;8.80;99.90;;;;;;5052078;28;20593;-67
2023/01/14 06:37:48;;;;;;;9.07;3.50;;;8.80;99.90;;;;;;5051290;28;20412;-67
2023/01/14 06:40:14;;;;;;;10.13;4.50;;;8.90;99.90;;;;;;5052039;28;20534;-67
2023/01/14 06:42:41;;;;;;;9.60;3.70;;;9.00;99.90;;;;;;5051400;28;20570;-68
2023/01/14 06:45:11;;;;;;;12.63;4.07;;;9.00;99.90;;;;;;5052206;28;20432;-67
2023/01/14 06:47:37;;;;;;;4.13;3.37;;;9.10;99.90;;;;;;5051975;28;20769;-67
2023/01/14 06:50:04;;;;;;;9.20;3.40;;;9.20;99.90;;;;;;5051528;28;20523;-67
2023/01/14 06:52:30;;;;;;;4.80;3.00;;;9.20;99.90;;;;;;5048152;28;20485;-67
2023/01/14 06:54:56;;;;;;;11.67;4.30;;;9.10;99.90;;;;;;5054714;28;20562;-67
2023/01/14 06:57:22;;;;;;;9.70;3.33;;;9.20;99.90;;;;;;5055190;28;20190;-67
2023/01/14 06:59:48;;;;;;;12.37;4.00;;;9.20;99.90;;;;;;5052620;28;20186;-68
2023/01/14 07:02:14;;;;;;;7.93;3.50;;;9.20;99.90;;;;;;5056219;28;20750;-67
2023/01/14 07:04:40;;;;;;;16.97;4.90;;;9.20;99.90;;;;;;5055576;28;20513;-68
2023/01/14 07:07:06;;;;;;;5.23;3.40;;;9.10;99.90;;;;;;5055235;28;20637;-67
2023/01/14 07:09:31;;;;;;;6.30;3.20;;;9.20;99.90;;;;;;5055954;28;20412;-67
2023/01/14 07:11:57;;;;;;;9.63;3.53;;;9.10;99.90;;;;;;5052480;28;20217;-67
2023/01/14 07:14:23;;;;;;;9.93;4.37;;;9.20;99.90;;;;;;5055540;28;20555;-67
2023/01/14 07:16:49;;;;;;;10.37;3.70;;;9.10;99.90;;;;;;5054966;28;20185;-67
2023/01/14 07:19:14;;;;;;;6.53;3.97;;;9.10;99.90;;;;;;5038033;28;20173;-67
2023/01/14 07:21:40;;;;;;;8.97;2.90;;;9.00;99.90;;;;;;5055327;28;20204;-67
2023/01/14 07:24:06;;;;;;;10.97;3.77;;;9.00;99.90;;;;;;5054961;28;20177;-67
2023/01/14 07:26:32;;;;;;;6.90;3.03;;;9.10;99.90;;;;;;5051973;28;20259;-67
2023/01/14 07:28:58;;;;;;;8.03;2.90;;;9.10;99.90;;;;;;5054631;28;20420;-67
2023/01/14 07:31:24;;;;;;;8.23;3.63;;;8.90;99.90;;;;;;5055111;28;20174;-67
2023/01/14 07:33:50;;;;;;;8.93;2.80;;;9.00;99.90;;;;;;5053268;28;20809;-67
2023/01/14 07:36:15;;;;;;;7.03;3.30;;;9.00;99.90;;;;;;5055328;28;20672;-67
2023/01/14 07:38:41;;;;;;;6.20;3.03;;;9.00;99.90;;;;;;5054934;28;20185;-68
2023/01/14 07:41:11;;;;;;;9.63;4.00;;;9.10;99.90;;;;;;5053494;28;20696;-67
2023/01/14 07:43:37;;;;;;;7.30;2.90;;;9.00;99.90;;;;;;5053771;28;20527;-67
2023/01/14 07:46:03;;;;;;;3.97;3.00;;;8.90;99.90;;;;;;5053055;28;20572;-67
2023/01/14 07:48:29;;;;;;;7.20;3.30;;;8.90;99.90;;;;;;5051823;28;20963;-67
2023/01/14 07:50:56;;;;;;;5.40;2.70;;;8.90;99.90;;;;;;5054157;28;20420;-67
2023/01/14 07:53:21;;;;;;;7.73;3.60;;;8.90;99.90;;;;;;5053125;28;20522;-67
2023/01/14 07:55:47;;;;;;;5.90;3.40;;;9.00;99.90;;;;;;5051660;28;21043;-67
2023/01/14 07:58:14;;;;;;;7.27;3.50;;;9.00;99.90;;;;;;5037167;28;20173;-66
2023/01/14 08:00:40;;;;;;;13.63;4.07;;;8.90;99.90;;;;;;5047250;28;20572;-66
2023/01/14 08:03:05;;;;;;;4.23;3.83;;;8.90;99.90;;;;;;5053707;28;20425;-66
2023/01/14 08:05:33;;;;;;;7.90;4.60;;;8.90;99.90;;;;;;5054211;28;20182;-66
2023/01/14 08:07:59;;;;;;;6.80;3.73;;;8.80;99.90;;;;;;5053716;28;20181;-67
2023/01/14 08:10:25;;;;;;;6.53;3.17;;;8.80;99.90;;;;;;5045816;28;20443;-67
2023/01/14 08:12:51;;;;;;;10.73;3.47;;;8.70;99.90;;;;;;5045675;28;20230;-67
2023/01/14 08:15:17;;;;;;;7.37;3.30;;;8.80;99.90;;;;;;5065108;28;20210;-67
2023/01/14 08:17:45;;;;;;;5.77;3.47;;;9.00;99.90;;;;;;5034528;28;20221;-68
2023/01/14 08:20:12;;;;;;;7.60;4.20;;;9.00;99.90;;;;;;5041456;28;20951;-67
2023/01/14 08:22:38;;;;;;;11.53;3.63;;;9.10;99.90;;;;;;5050389;28;20520;-67
2023/01/14 08:25:05;;;;;;;7.30;3.53;;;9.20;99.90;;;;;;5053574;28;20954;-67
2023/01/14 08:27:32;;;;;;;9.70;4.40;;;9.00;99.90;;;;;;5053951;28;20900;-67
2023/01/14 08:29:58;;;;;;;6.60;3.33;;;9.00;99.90;;;;;;5053518;28;20404;-67
2023/01/14 08:32:24;;;;;;;8.27;3.60;;;9.00;99.90;;;;;;5053058;28;20429;-67
2023/01/14 08:34:50;;;;;;;8.27;3.60;;;9.00;99.90;;;;;;5053484;28;20220;-68
2023/01/14 08:37:15;;;;;;;4.27;3.77;;;9.10;99.90;;;;;;5054009;28;20416;-66
2023/01/14 08:39:41;;;;;;;4.67;3.30;;;9.10;99.90;;;;;;5054090;28;20182;-67
2023/01/14 08:42:07;;;;;;;6.03;3.70;;;9.00;99.90;;;;;;5053246;28;20170;-68
2023/01/14 08:44:33;;;;;;;7.80;4.77;;;8.90;99.90;;;;;;5054083;28;20231;-67
2023/01/14 08:46:58;;;;;;;9.07;4.10;;;8.70;99.90;;;;;;5053029;28;20630;-68
2023/01/14 08:49:24;;;;;;;5.83;4.17;;;8.80;99.90;;;;;;5050831;28;20495;-67
2023/01/14 08:51:50;;;;;;;7.00;4.20;;;8.70;99.90;;;;;;5053433;28;20583;-67
2023/01/14 08:54:16;;;;;;;7.77;3.03;;;8.80;99.90;;;;;;5060300;28;20435;-68
2023/01/14 08:56:42;;;;;;;6.10;3.70;;;8.80;99.90;;;;;;5051912;28;20248;-67
2023/01/14 08:59:07;;;;;;;4.50;3.93;;;8.80;99.90;;;;;;5052962;28;20415;-68
2023/01/14 09:01:33;;;;;;;6.97;3.93;;;8.80;99.90;;;;;;5050956;28;20189;-69
2023/01/14 09:04:00;;;;;;;9.37;3.80;;;8.80;99.90;;;;;;5050807;28;20208;-69
2023/01/14 09:06:26;;;;;;;11.63;4.10;;;8.90;99.90;;;;;;5041484;28;20277;-67
2023/01/14 09:17:21;;;;;;;7.40;3.73;;;8.70;99.90;;;;;;5051354;28;20543;-69
2023/01/14 09:20:00;;;;;;;7.23;4.13;;;8.80;99.90;;;;;;5051119;28;20438;-69
2023/01/14 09:22:28;;;;;;;8.88;5.40;;;8.90;99.90;;;;;;5065107;28;20410;-69
2023/01/14 09:24:54;;;;;;;8.70;4.97;;;9.20;99.90;;;;;;5068606;28;20182;-69
2023/01/14 09:27:21;;;;;;;8.83;5.33;;;9.70;99.90;;;;;;5065366;28;20421;-68
2023/01/14 09:29:47;;;;;;;5.37;3.57;;;10.10;99.90;;;;;;5052921;28;20526;-68
2023/01/14 09:32:15;;;;;;;7.23;4.00;;;10.20;99.90;;;;;;5052354;28;20435;-69
2023/01/14 09:34:49;;;;;;;4.20;3.60;;;10.30;99.90;;;;;;5052962;28;20470;-69
2023/01/14 09:37:21;;;;;;;6.30;4.03;;;10.60;99.90;;;;;;5052651;28;20403;-68
2023/01/14 09:39:47;;;;;;;5.07;4.10;;;10.80;99.90;;;;;;5053165;28;20876;-69
2023/01/14 09:42:38;;;;;;;6.13;5.10;;;10.90;99.90;;;;;;5052491;28;20481;-70
2023/01/14 09:45:25;;;;;;;3.70;3.40;;;10.70;99.90;;;;;;5048811;28;20436;-70
2023/01/14 09:47:52;;;;;;;156.27;94.47;;;10.60;99.90;;;;;;5051812;28;20427;-71
2023/01/14 09:50:48;;;;;;;7.20;5.20;;;10.90;99.90;;;;;;5051612;28;20494;-67
2023/01/14 09:53:32;;;;;;;5.77;3.30;;;11.00;99.90;;;;;;5035825;28;20443;-67
2023/01/14 09:56:25;;;;;;;5.80;2.87;;;10.70;99.90;;;;;;5052791;28;20899;-68
2023/01/14 09:58:57;;;;;;;8.27;4.10;;;10.40;99.90;;;;;;5027681;28;20810;-68
2023/01/14 10:01:32;;;;;;;3.80;3.40;;;10.20;99.90;;;;;;5071241;28;20422;-70
2023/01/14 10:04:24;;;;;;;4.30;3.40;;;10.10;99.90;;;;;;5052815;28;20437;-68
2023/01/14 10:06:54;;;;;;;4.87;3.23;;;9.90;99.90;;;;;;5045908;28;20481;-68
2023/01/14 10:09:32;;;;;;;3.13;2.80;;;9.90;99.90;;;;;;5045516;28;20908;-67
2023/01/14 10:12:00;;;;;;;6.93;2.90;;;10.00;99.90;;;;;;5046077;28;20579;-68
2023/01/14 10:14:37;;;;;;;2.87;2.60;;;9.90;99.90;;;;;;5048272;28;20439;-67
2023/01/14 10:17:11;;;;;;;2.97;2.77;;;9.90;99.90;;;;;;5041169;28;20469;-67
2023/01/14 10:19:47;;;;;;;3.57;3.23;;;9.90;99.90;;;;;;5044372;28;20865;-67
2023/01/14 10:22:42;;;;;;;6.63;3.40;;;9.80;99.90;;;;;;5039656;28;20783;-67
2023/01/14 10:25:20;;;;;;;3.53;3.20;;;9.80;99.90;;;;;;5048816;28;20440;-68
2023/01/14 10:27:52;;;;;;;4.10;2.77;;;9.70;99.90;;;;;;5040132;28;20435;-67
2023/01/14 10:30:25;;;;;;;3.63;3.00;;;9.70;99.90;;;;;;5050808;28;20428;-67
2023/01/14 10:32:53;;;;;;;3.60;3.30;;;9.70;99.90;;;;;;5047977;28;20980;-69
2023/01/14 10:35:40;;;;;;;3.17;2.97;;;9.60;99.90;;;;;;5052424;28;20511;-68
2023/01/14 10:38:08;;;;;;;3.33;3.03;;;9.60;99.90;;;;;;5049589;28;20427;-67
2023/01/14 10:40:34;;;;;;;4.03;3.63;;;9.60;99.90;;;;;;5052049;28;20467;-67
2023/01/14 10:43:02;;;;;;;4.23;3.70;;;9.70;99.90;;;;;;5050414;28;20466;-68
2023/01/14 10:45:28;;;;;;;3.23;3.03;;;9.70;99.90;;;;;;5053935;28;20186;-67
2023/01/14 10:48:02;;;;;;;5.17;3.50;;;9.80;99.90;;;;;;5062799;28;20480;-67
2023/01/14 10:50:29;;;;;;;3.27;3.00;;;9.80;99.90;;;;;;5072211;28;20922;-67
2023/01/14 10:53:23;;;;;;;4.30;3.47;;;9.70;99.90;;;;;;5071772;28;20404;-67
2023/01/14 10:55:53;;;;;;;3.73;3.40;;;9.60;99.90;;;;;;5057003;28;20486;-67
2023/01/14 10:58:43;;;;;;;3.43;3.23;;;9.70;99.90;;;;;;5052468;28;20412;-67
2023/01/14 11:01:11;;;;;;;4.87;3.60;;;9.70;99.90;;;;;;5051719;28;20729;-67
2023/01/14 11:03:47;;;;;;;3.13;2.93;;;9.60;99.90;;;;;;5051996;28;20801;-68
2023/01/14 11:06:16;;;;;;;4.17;3.70;;;9.60;99.90;;;;;;5051728;28;20491;-68
2023/01/14 11:08:49;;;;;;;4.30;3.70;;;9.60;99.90;;;;;;5050578;28;20469;-67
2023/01/14 11:11:36;;;;;;;3.80;3.50;;;9.60;99.90;;;;;;5051356;28;20488;-67
2023/01/14 11:14:26;;;;;;;5.87;3.30;;;9.60;99.90;;;;;;5051567;28;20499;-68
2023/01/14 11:16:53;;;;;;;3.17;2.90;;;9.60;99.90;;;;;;5052103;28;20523;-67
2023/01/14 11:19:21;;;;;;;3.37;3.17;;;9.50;99.90;;;;;;5052153;28;20405;-67
2023/01/14 11:21:50;;;;;;;4.70;3.40;;;9.40;99.90;;;;;;5051041;28;20417;-68
2023/01/14 11:24:30;;;;;;;2.97;2.87;;;9.50;99.90;;;;;;5051191;28;20424;-68
2023/01/14 11:27:19;;;;;;;3.17;2.97;;;9.50;99.90;;;;;;5051503;28;20417;-69
2023/01/14 11:29:49;;;;;;;2.63;2.43;;;9.60;99.90;;;;;;5050801;28;20417;-68
2023/01/14 11:32:21;;;;;;;4.10;2.60;;;9.50;99.90;;;;;;5050161;28;20404;-68
2023/01/14 11:35:06;;;;;;;2.80;2.70;;;9.50;99.90;;;;;;5051814;28;20460;-67
2023/01/14 11:37:39;;;;;;;4.73;2.67;;;9.50;99.90;;;;;;5051792;28;20393;-67
2023/01/14 11:40:06;;;;;;;2.30;2.20;;;9.50;99.90;;;;;;5051731;28;20490;-68
2023/01/14 11:42:34;;;;;;;2.90;2.57;;;9.60;99.90;;;;;;5055407;28;20951;-67
2023/01/14 11:45:15;;;;;;;2.70;2.50;;;9.60;99.90;;;;;;5053544;28;20515;-67
2023/01/14 11:47:49;;;;;;;2.60;2.13;;;9.60;99.90;;;;;;5055620;28;20415;-68
2023/01/14 11:50:25;;;;;;;2.67;2.57;;;9.70;99.90;;;;;;5054798;28;20421;-68
2023/01/14 11:53:16;;;;;;;4.20;3.90;;;9.60;99.90;;;;;;5055618;28;20421;-68
2023/01/14 11:55:44;;;;;;;5.60;2.67;;;9.60;99.90;;;;;;5055401;28;20444;-68
2023/01/14 11:58:12;;;;;;;3.03;2.73;;;9.60;99.90;;;;;;5054808;28;20452;-68
2023/01/14 12:00:40;;;;;;;2.90;2.70;;;9.70;99.90;;;;;;5054147;28;20412;-68
2023/01/14 12:03:19;;;;;;;3.20;3.00;;;9.70;99.90;;;;;;5054703;28;20483;-67
2023/01/14 12:05:45;;;;;;;2.93;2.80;;;9.70;99.90;;;;;;5043694;28;20498;-68
2023/01/14 12:08:17;;;;;;;3.50;3.40;;;9.90;99.90;;;;;;5051788;28;20924;-68
2023/01/14 12:10:47;;;;;;;3.50;3.40;;;9.90;99.90;;;;;;5053445;28;20440;-68
2023/01/14 12:16:56;;;;;;;3.17;2.90;;;9.80;99.90;;;;;;5043043;28;20444;-68
2023/01/14 12:19:31;;;;;;;3.70;3.20;;;9.80;99.90;;;;;;5049032;28;20420;-68
2023/01/14 12:22:12;;;;;;;2.40;2.30;;;9.70;99.90;;;;;;5037974;28;20523;-69
2023/01/14 12:24:54;;;;;;;2.40;2.27;;;9.70;99.90;;;;;;5034931;28;20414;-68
2023/01/14 12:27:42;;;;;;;2.43;2.30;;;9.80;99.90;;;;;;5048556;28;20443;-68
2023/01/14 12:30:25;;;;;;;2.67;2.47;;;9.80;99.90;;;;;;5046589;28;20501;-68
2023/01/14 12:33:20;;;;;;;3.13;2.70;;;9.80;99.90;;;;;;5049551;28;20575;-68
2023/01/14 12:35:59;;;;;;;3.60;3.50;;;9.80;99.90;;;;;;5051082;28;20526;-68
2023/01/14 12:47:27;;;;;;;3.40;3.10;;;9.90;99.90;;;;;;5033345;28;20549;-68
2023/01/14 12:49:53;;;;;;;3.17;3.00;;;10.00;99.90;;;;;;5046078;28;20796;-67
2023/01/14 12:52:32;;;;;;;2.80;2.70;;;10.00;99.90;;;;;;5051694;28;20440;-68
2023/01/14 12:55:02;;;;;;;2.97;2.83;;;10.00;99.90;;;;;;5040255;28;20844;-67
2023/01/14 12:57:28;;;;;;;2.90;2.80;;;10.00;99.90;;;;;;5046217;28;20413;-68
2023/01/14 13:00:06;;;;;;;3.17;2.97;;;10.00;99.90;;;;;;5052007;28;20437;-68
2023/01/14 13:02:41;;;;;;;3.27;3.17;;;10.00;99.90;;;;;;5048249;28;20443;-68
2023/01/14 13:05:09;;;;;;;3.10;3.00;;;10.00;99.90;;;;;;5049301;28;20501;-68
2023/01/14 13:07:59;;;;;;;73.93;47.57;;;10.10;99.90;;;;;;5049875;28;20591;-67
2023/01/14 13:10:38;;;;;;;3.83;3.10;;;10.00;99.90;;;;;;5028606;28;20915;-68
2023/01/14 13:13:20;;;;;;;2.60;2.50;;;10.10;99.90;;;;;;5048492;28;21004;-68
2023/01/14 13:15:46;;;;;;;2.97;2.87;;;10.00;99.90;;;;;;5048910;28;20468;-69
2023/01/14 13:18:40;;;;;;;3.40;3.10;;;10.20;99.90;;;;;;5040704;28;20906;-68
2023/01/14 13:21:08;;;;;;;2.80;2.70;;;10.10;99.90;;;;;;5030888;28;20433;-68
2023/01/14 13:23:40;;;;;;;2.77;2.67;;;10.10;99.90;;;;;;5036843;28;20445;-68
2023/01/14 13:26:21;;;;;;;41.53;30.43;;;10.10;99.90;;;;;;5032615;28;20447;-67
2023/01/14 13:29:16;;;;;;;31.20;22.53;;;10.10;99.90;;;;;;5049177;28;20440;-68
2023/01/14 13:31:43;;;;;;;4.60;4.23;;;10.20;99.90;;;;;;5021763;28;20437;-67
2023/01/14 13:34:33;;;;;;;2.93;2.73;;;10.20;99.90;;;;;;5046457;28;20470;-68
2023/01/14 13:37:02;;;;;;;2.90;2.70;;;10.10;99.90;;;;;;5039566;28;20453;-68
2023/01/14 13:39:30;;;;;;;3.17;2.63;;;10.10;99.90;;;;;;5049479;28;20440;-67
2023/01/14 13:42:01;;;;;;;2.67;2.57;;;10.10;99.90;;;;;;5049148;28;20488;-66
2023/01/14 13:44:39;;;;;;;2.77;2.67;;;10.20;99.90;;;;;;5049108;28;20453;-68
2023/01/14 13:47:27;;;;;;;2.57;2.47;;;10.20;99.90;;;;;;5048510;28;20439;-69